createdAt,value
2023-05-06T00:00:44.558Z,95396.06
2023-05-06T00:03:13.364Z,95400.84
2023-05-06T00:05:42.777Z,95394.25
2023-05-06T00:08:10.947Z,95394.56
2023-05-06T00:10:39.149Z,95389.28
2023-05-06T00:13:09.333Z,95384.25
2023-05-06T00:15:37.537Z,95384.75
2023-05-06T00:18:06.015Z,95387.44
2023-05-06T00:20:34.273Z,95388.25
2023-05-06T00:23:02.316Z,95383.25
2023-05-06T00:25:30.312Z,95382.72
2023-05-06T00:27:58.208Z,95385.31
2023-05-06T00:30:28.291Z,95381.84
2023-05-06T00:32:56.763Z,95376.22
2023-05-06T00:35:25.410Z,95380.19
2023-05-06T00:37:59.033Z,95379.88
2023-05-06T00:40:27.474Z,95373.81
2023-05-06T00:42:55.933Z,95372.22
2023-05-06T00:45:26.047Z,95372.19
2023-05-06T00:47:56.339Z,95368.44
2023-05-06T00:50:25.684Z,95366.84
2023-05-06T00:52:54.678Z,95362.06
2023-05-06T00:55:23.221Z,95369.19
2023-05-06T00:57:52.999Z,95358.63
2023-05-06T01:00:22.454Z,95359.38
2023-05-06T01:02:50.703Z,95360.88
2023-05-06T01:05:23.348Z,95360.81
2023-05-06T01:08:02.021Z,95361.78
2023-05-06T01:10:39.161Z,95361.53
2023-05-06T01:13:16.231Z,95367.81
2023-05-06T01:15:47.569Z,95364.09
2023-05-06T01:18:18.541Z,95356.41
2023-05-06T01:20:50.995Z,95353.94
2023-05-06T01:23:20.935Z,95363.72
2023-05-06T01:25:49.196Z,95365.28
2023-05-06T01:28:18.869Z,95359.22
2023-05-06T01:30:56.875Z,95355.19
2023-05-06T01:33:38.250Z,95351.69
2023-05-06T01:36:17.088Z,95351.97
2023-05-06T01:38:58.936Z,95352.22
2023-05-06T01:41:29.055Z,95356.44
2023-05-06T01:44:01.664Z,95364.63
2023-05-06T01:46:32.135Z,95360.38
2023-05-06T01:49:05.271Z,95367.19
2023-05-06T01:51:34.220Z,95361.13
2023-05-06T01:54:05.264Z,95365.53
2023-05-06T01:56:33.421Z,95366.34
2023-05-06T01:59:01.946Z,95362.66
2023-05-06T02:01:30.167Z,95370.34
2023-05-06T02:03:58.494Z,95370.28
2023-05-06T02:06:27.193Z,95371.34
2023-05-06T02:08:55.326Z,95365.47
2023-05-06T02:11:27.288Z,95368.94
2023-05-06T02:14:01.990Z,95371.59
2023-05-06T02:16:32.123Z,95370.28
2023-05-06T02:19:00.207Z,95370.28
2023-05-06T02:21:28.524Z,95372.94
2023-05-06T02:23:56.575Z,95372.38
2023-05-06T02:26:24.697Z,95369.41
2023-05-06T02:28:54.120Z,95369.91
2023-05-06T02:31:22.454Z,95374.94
2023-05-06T02:33:50.773Z,95371.22
2023-05-06T02:36:19.000Z,95368.38
2023-05-06T02:38:48.193Z,95373.41
2023-05-06T02:41:16.313Z,95366.06
2023-05-06T02:43:44.354Z,95362.91
2023-05-06T02:46:33.294Z,95352.88
2023-05-06T02:49:20.056Z,95357.16
2023-05-06T02:51:48.581Z,95355.84
2023-05-06T02:54:17.063Z,95351.91
2023-05-06T02:56:46.369Z,95356.69
2023-05-06T02:59:14.913Z,95353.56
2023-05-06T03:01:44.774Z,95354.91
2023-05-06T03:04:14.373Z,95355.72
2023-05-06T03:06:42.958Z,95357.31
2023-05-06T03:09:11.644Z,95351.50
2023-05-06T03:11:39.885Z,95352.81
2023-05-06T03:14:08.031Z,95349.63
2023-05-06T03:16:36.474Z,95341.72
2023-05-06T03:19:06.607Z,95339.53
2023-05-06T03:21:35.189Z,95337.94
2023-05-06T03:24:04.454Z,95337.66
2023-05-06T03:26:32.726Z,95342.88
2023-05-06T03:29:01.167Z,95347.59
2023-05-06T03:31:29.428Z,95343.38
2023-05-06T03:33:59.276Z,95338.84
2023-05-06T03:36:29.330Z,95341.31
2023-05-06T03:38:57.317Z,95338.88
2023-05-06T03:41:26.431Z,95339.59
2023-05-06T03:43:55.868Z,95344.06
2023-05-06T03:46:27.243Z,95338.53
2023-05-06T03:48:55.555Z,95330.28
2023-05-06T03:51:24.509Z,95330.78
2023-05-06T03:53:54.909Z,95336.06
2023-05-06T03:56:24.343Z,95334.94
2023-05-06T03:58:55.311Z,95327.81
2023-05-06T04:01:25.572Z,95337.09
2023-05-06T04:03:54.770Z,95343.44
2023-05-06T04:06:24.643Z,95346.81
2023-05-06T04:08:54.238Z,95344.97
2023-05-06T04:11:22.379Z,95347.09
2023-05-06T04:13:50.539Z,95350.31
2023-05-06T04:16:21.691Z,95358.78
2023-05-06T04:18:51.606Z,95356.13
2023-05-06T04:21:20.343Z,95360.78
2023-05-06T04:23:56.486Z,95362.88
2023-05-06T04:26:33.101Z,95366.00
2023-05-06T04:29:01.548Z,95370.19
2023-05-06T04:31:33.040Z,95368.88
2023-05-06T04:34:04.595Z,95371.78
2023-05-06T04:36:34.116Z,95373.91
2023-05-06T04:39:26.904Z,95371.59
2023-05-06T04:41:54.900Z,95382.44
2023-05-06T04:44:31.161Z,95378.28
2023-05-06T04:46:59.784Z,95383.88
2023-05-06T04:49:28.021Z,95396.09
2023-05-06T04:51:57.056Z,95388.78
2023-05-06T04:54:27.587Z,95386.22
2023-05-06T04:56:56.077Z,95394.22
2023-05-06T04:59:24.732Z,95391.88
2023-05-06T05:01:52.830Z,95396.44
2023-05-06T05:04:21.741Z,95391.78
2023-05-06T05:06:50.610Z,95391.09
2023-05-06T05:09:18.926Z,95396.22
2023-05-06T05:11:51.354Z,95399.47
2023-05-06T05:14:20.645Z,95401.31
2023-05-06T05:16:48.951Z,95403.97
2023-05-06T05:19:17.321Z,95405.56
2023-05-06T05:21:45.916Z,95403.75
2023-05-06T05:24:14.726Z,95402.50
2023-05-06T05:26:43.585Z,95406.22
2023-05-06T05:29:13.257Z,95407.06
2023-05-06T05:31:43.043Z,95403.97
2023-05-06T05:34:11.644Z,95407.47
2023-05-06T05:36:39.729Z,95414.16
2023-05-06T05:39:11.660Z,95421.63
2023-05-06T05:41:44.838Z,95416.13
2023-05-06T05:44:15.041Z,95412.72
2023-05-06T05:46:44.329Z,95416.00
2023-05-06T05:49:15.773Z,95415.53
2023-05-06T05:51:44.152Z,95412.66
2023-05-06T05:54:16.639Z,95419.91
2023-05-06T05:56:45.178Z,95421.81
2023-05-06T05:59:14.549Z,95420.78
2023-05-06T06:01:43.925Z,95425.13
2023-05-06T06:04:12.432Z,95414.59
2023-05-06T06:06:40.622Z,95417.59
2023-05-06T06:09:08.981Z,95418.97
2023-05-06T06:11:39.086Z,95426.50
2023-05-06T06:14:08.343Z,95433.19
2023-05-06T06:16:39.120Z,95434.00
2023-05-06T06:19:07.604Z,95440.41
2023-05-06T06:21:36.330Z,95441.53
2023-05-06T06:24:06.347Z,95440.75
2023-05-06T06:26:34.901Z,95442.34
2023-05-06T06:29:03.056Z,95450.88
2023-05-06T06:31:31.248Z,95443.69
2023-05-06T06:34:00.704Z,95441.63
2023-05-06T06:36:28.870Z,95444.00
2023-05-06T06:38:57.236Z,95444.56
2023-05-06T06:41:25.311Z,95451.72
2023-05-06T06:43:53.428Z,95443.75
2023-05-06T06:46:25.899Z,95448.78
2023-05-06T06:48:54.011Z,95455.94
2023-05-06T06:51:23.365Z,95455.66
2023-05-06T06:53:53.130Z,95454.09
2023-05-06T06:56:21.950Z,95452.75
2023-05-06T06:58:51.809Z,95452.75
2023-05-06T07:01:21.534Z,95462.31
2023-05-06T07:03:49.626Z,95453.78
2023-05-06T07:06:17.941Z,95454.56
2023-05-06T07:08:47.897Z,95450.34
2023-05-06T07:11:15.992Z,95456.44
2023-05-06T07:13:44.194Z,95452.41
2023-05-06T07:16:12.215Z,95458.25
2023-05-06T07:18:40.479Z,95458.75
2023-05-06T07:21:08.782Z,95463.50
2023-05-06T07:23:36.784Z,95459.50
2023-05-06T07:26:06.750Z,95457.63
2023-05-06T07:28:35.409Z,95456.28
2023-05-06T07:31:04.531Z,95466.31
2023-05-06T07:33:32.559Z,95460.13
2023-05-06T07:36:00.980Z,95459.56
2023-05-06T07:38:29.624Z,95465.03
2023-05-06T07:40:57.848Z,95467.84
2023-05-06T07:43:27.602Z,95472.78
2023-05-06T07:46:02.524Z,95477.81
2023-05-06T07:48:30.804Z,95471.84
2023-05-06T07:50:59.381Z,95475.88
2023-05-06T07:53:28.964Z,95487.03
2023-05-06T07:56:02.500Z,95487.59
2023-05-06T07:58:33.270Z,95496.09
2023-05-06T08:01:01.596Z,95496.63
2023-05-06T08:03:30.009Z,95488.91
2023-05-06T08:05:58.594Z,95497.41
2023-05-06T08:08:30.054Z,95492.94
2023-05-06T08:10:59.670Z,95497.69
2023-05-06T08:13:28.371Z,95492.94
2023-05-06T08:15:59.070Z,95493.44
2023-05-06T08:18:27.444Z,95496.69
2023-05-06T08:20:55.772Z,95490.72
2023-05-06T08:23:24.252Z,95493.72
2023-05-06T08:25:52.701Z,95490.44
2023-05-06T08:28:22.107Z,95491.03
2023-05-06T08:30:52.331Z,95493.31
2023-05-06T08:33:21.854Z,95500.16
2023-05-06T08:35:52.680Z,95498.19
2023-05-06T08:38:21.942Z,95505.41
2023-05-06T08:40:50.408Z,95504.63
2023-05-06T08:43:22.771Z,95502.44
2023-05-06T08:45:51.785Z,95506.34
2023-05-06T08:48:22.103Z,95503.66
2023-05-06T08:50:52.096Z,95501.09
2023-05-06T08:53:20.407Z,95503.63
2023-05-06T08:55:53.098Z,95506.53
2023-05-06T08:58:26.108Z,95506.97
2023-05-06T09:00:54.418Z,95503.41
2023-05-06T09:03:24.018Z,95503.09
2023-05-06T09:05:52.632Z,95499.56
2023-05-06T09:08:20.957Z,95488.78
2023-05-06T09:10:49.287Z,95504.13
2023-05-06T09:13:18.683Z,95496.09
2023-05-06T09:15:48.438Z,95488.69
2023-05-06T09:18:17.982Z,95492.75
2023-05-06T09:20:49.321Z,95493.81
2023-05-06T09:23:19.278Z,95487.41
2023-05-06T09:25:49.944Z,95497.22
2023-05-06T09:28:18.420Z,95496.91
2023-05-06T09:30:48.011Z,95500.00
2023-05-06T09:33:16.528Z,95502.09
2023-05-06T09:35:45.955Z,95502.56
2023-05-06T09:38:15.350Z,95494.84
2023-05-06T09:40:43.337Z,95501.56
2023-05-06T09:43:12.407Z,95494.03
2023-05-06T09:45:41.141Z,95495.94
2023-05-06T09:48:09.805Z,95492.25
2023-05-06T09:50:38.514Z,95499.44
2023-05-06T09:53:08.444Z,95491.34
2023-05-06T09:55:39.177Z,95488.97
2023-05-06T09:58:09.992Z,95485.63
2023-05-06T10:00:39.341Z,95483.28
2023-05-06T10:03:08.324Z,95485.06
2023-05-06T10:05:37.809Z,95490.53
2023-05-06T10:08:08.405Z,95477.44
2023-05-06T10:10:38.709Z,95478.84
2023-05-06T10:13:07.201Z,95479.06
2023-05-06T10:15:36.093Z,95479.88
2023-05-06T10:18:04.974Z,95477.78
2023-05-06T10:20:35.916Z,95477.28
2023-05-06T10:23:14.234Z,95475.19
2023-05-06T10:25:45.864Z,95462.84
2023-05-06T10:28:17.242Z,95466.09
2023-05-06T10:31:00.350Z,95464.78
2023-05-06T10:33:32.048Z,95461.97
2023-05-06T10:36:21.766Z,95454.19
2023-05-06T10:38:54.916Z,95449.47
2023-05-06T10:41:29.796Z,95450.06
2023-05-06T10:44:00.105Z,95452.53
2023-05-06T10:46:31.313Z,95437.28
2023-05-06T10:49:20.032Z,95441.47
2023-05-06T10:52:12.831Z,95445.28
2023-05-06T10:54:51.354Z,95436.38
2023-05-06T10:57:27.530Z,95432.97
2023-05-06T10:59:56.040Z,95423.75
2023-05-06T11:02:25.443Z,95417.63
2023-05-06T11:05:02.379Z,95417.06
2023-05-06T11:07:30.779Z,95413.38
2023-05-06T11:10:02.524Z,95408.34
2023-05-06T11:12:50.138Z,95414.34
2023-05-06T11:15:25.584Z,95411.44
2023-05-06T11:17:55.096Z,95413.44
2023-05-06T11:20:27.582Z,95414.34
2023-05-06T11:22:56.280Z,95413.13
2023-05-06T11:25:40.808Z,95420.34
2023-05-06T11:28:12.085Z,95421.63
2023-05-06T11:30:42.840Z,95427.47
2023-05-06T11:33:20.373Z,95416.56
2023-05-06T11:35:49.154Z,95413.56
2023-05-06T11:38:17.404Z,95416.75
2023-05-06T11:40:45.542Z,95423.53
2023-05-06T11:43:17.009Z,95420.69
2023-05-06T11:45:47.045Z,95411.34
2023-05-06T11:48:16.450Z,95410.03
2023-05-06T11:50:49.100Z,95410.66
2023-05-06T11:53:21.143Z,95407.50
2023-05-06T11:55:50.834Z,95411.44
2023-05-06T11:58:26.765Z,95407.88
2023-05-06T12:00:57.277Z,95419.03
2023-05-06T12:03:26.709Z,95414.63
2023-05-06T12:05:55.908Z,95412.31
2023-05-06T12:08:28.261Z,95401.38
2023-05-06T12:11:02.028Z,95404.53
2023-05-06T12:13:32.323Z,95405.28
2023-05-06T12:16:01.465Z,95402.59
2023-05-06T12:18:30.610Z,95399.16
2023-05-06T12:21:03.455Z,95397.56
2023-05-06T12:23:32.370Z,95393.00
2023-05-06T12:26:03.772Z,95392.31
2023-05-06T12:28:36.604Z,95396.09
2023-05-06T12:31:19.593Z,95390.69
2023-05-06T12:33:50.353Z,95394.94
2023-05-06T12:36:19.724Z,95390.03
2023-05-06T12:38:52.374Z,95391.59
2023-05-06T12:41:21.273Z,95391.75
2023-05-06T12:43:52.639Z,95395.44
2023-05-06T12:46:21.097Z,95394.69
2023-05-06T12:48:59.935Z,95389.00
2023-05-06T12:51:30.764Z,95386.03
2023-05-06T12:53:59.216Z,95388.91
2023-05-06T12:56:27.197Z,95387.97
2023-05-06T12:59:01.263Z,95390.16
2023-05-06T13:01:29.616Z,95379.88
2023-05-06T13:03:58.641Z,95376.13
2023-05-06T13:06:26.909Z,95375.59
2023-05-06T13:08:54.973Z,95372.44
2023-05-06T13:11:24.720Z,95369.44
2023-05-06T13:13:52.805Z,95360.88
2023-05-06T13:16:22.580Z,95360.56
2023-05-06T13:18:50.653Z,95358.00
2023-05-06T13:21:18.798Z,95351.50
2023-05-06T13:23:48.037Z,95349.00
2023-05-06T13:26:17.372Z,95357.41
2023-05-06T13:28:45.918Z,95356.28
2023-05-06T13:31:14.484Z,95353.31
2023-05-06T13:33:43.820Z,95349.66
2023-05-06T13:36:12.120Z,95350.81
2023-05-06T13:38:40.737Z,95347.63
2023-05-06T13:41:08.876Z,95341.16
2023-05-06T13:43:37.393Z,95336.56
2023-05-06T13:46:05.471Z,95328.19
2023-05-06T13:48:34.151Z,95325.31
2023-05-06T13:51:03.874Z,95333.06
2023-05-06T13:53:32.022Z,95322.31
2023-05-06T13:56:00.549Z,95322.63
2023-05-06T13:58:28.544Z,95323.41
2023-05-06T14:00:56.456Z,95325.78
2023-05-06T14:03:24.773Z,95325.31
2023-05-06T14:05:53.227Z,95311.09
2023-05-06T14:08:23.820Z,95315.19
2023-05-06T14:10:51.963Z,95319.28
2023-05-06T14:13:20.476Z,95314.22
2023-05-06T14:15:48.856Z,95315.19
2023-05-06T14:18:16.995Z,95314.06
2023-05-06T14:20:45.411Z,95314.84
2023-05-06T14:23:13.888Z,95314.97
2023-05-06T14:25:44.619Z,95306.00
2023-05-06T14:28:13.180Z,95302.09
2023-05-06T14:30:41.391Z,95296.53
2023-05-06T14:33:11.557Z,95307.59
2023-05-06T14:35:41.920Z,95300.75
2023-05-06T14:38:10.427Z,95299.16
2023-05-06T14:40:39.479Z,95306.88
2023-05-06T14:43:09.724Z,95308.56
2023-05-06T14:45:37.731Z,95310.41
2023-05-06T14:48:06.767Z,95308.03
2023-05-06T14:50:35.336Z,95303.56
2023-05-06T14:53:04.080Z,95300.31
2023-05-06T14:55:32.251Z,95294.91
2023-05-06T14:58:00.356Z,95294.72
2023-05-06T15:00:29.862Z,95298.34
2023-05-06T15:02:58.490Z,95288.84
2023-05-06T15:05:26.991Z,95294.34
2023-05-06T15:07:55.264Z,95292.41
2023-05-06T15:10:23.411Z,95286.56
2023-05-06T15:12:52.979Z,95289.41
2023-05-06T15:15:21.520Z,95287.41
2023-05-06T15:17:52.356Z,95282.19
2023-05-06T15:20:20.496Z,95286.53
2023-05-06T15:22:48.647Z,95284.00
2023-05-06T15:25:30.304Z,95283.22
2023-05-06T15:28:02.916Z,95282.94
2023-05-06T15:30:30.868Z,95286.41
2023-05-06T15:33:02.744Z,95293.72
2023-05-06T15:35:31.656Z,95288.31
2023-05-06T15:37:59.725Z,95291.69
2023-05-06T15:40:28.233Z,95300.28
2023-05-06T15:42:57.305Z,95296.00
2023-05-06T15:45:25.858Z,95293.81
2023-05-06T15:47:54.608Z,95298.56
2023-05-06T15:50:32.698Z,95286.25
2023-05-06T15:53:02.358Z,95292.19
2023-05-06T15:55:35.101Z,95286.78
2023-05-06T15:58:11.733Z,95285.59
2023-05-06T16:00:39.892Z,95283.09
2023-05-06T16:03:11.592Z,95287.22
2023-05-06T16:05:41.938Z,95287.56
2023-05-06T16:08:09.924Z,95297.09
2023-05-06T16:10:38.125Z,95286.72
2023-05-06T16:13:06.272Z,95288.75
2023-05-06T16:15:35.377Z,95284.50
2023-05-06T16:18:03.814Z,95290.66
2023-05-06T16:20:32.595Z,95290.03
2023-05-06T16:23:03.696Z,95277.75
2023-05-06T16:25:31.715Z,95289.19
2023-05-06T16:28:00.184Z,95279.72
2023-05-06T16:30:28.728Z,95282.69
2023-05-06T16:32:57.106Z,95280.50
2023-05-06T16:35:26.705Z,95274.56
2023-05-06T16:37:55.738Z,95282.78
2023-05-06T16:40:25.689Z,95280.09
2023-05-06T16:42:53.818Z,95273.72
2023-05-06T16:45:21.864Z,95278.03
2023-05-06T16:47:50.214Z,95285.06
2023-05-06T16:50:18.876Z,95281.84
2023-05-06T16:52:48.494Z,95279.22
2023-05-06T16:55:16.891Z,95278.06
2023-05-06T16:57:46.337Z,95272.47
2023-05-06T17:00:16.498Z,95272.69
2023-05-06T17:02:44.730Z,95274.88
2023-05-06T17:05:14.749Z,95274.06
2023-05-06T17:07:42.852Z,95269.91
2023-05-06T17:10:12.609Z,95267.34
2023-05-06T17:12:41.571Z,95276.59
2023-05-06T17:15:12.776Z,95265.63
2023-05-06T17:17:41.255Z,95268.00
2023-05-06T17:20:12.184Z,95265.84
2023-05-06T17:22:41.174Z,95270.91
2023-05-06T17:25:10.606Z,95263.34
2023-05-06T17:27:38.658Z,95264.22
2023-05-06T17:30:09.611Z,95262.97
2023-05-06T17:32:39.807Z,95258.13
2023-05-06T17:35:08.446Z,95269.13
2023-05-06T17:37:36.720Z,95267.25
2023-05-06T17:40:06.845Z,95269.94
2023-05-06T17:42:35.592Z,95274.19
2023-05-06T17:45:03.706Z,95276.53
2023-05-06T17:47:32.715Z,95278.00
2023-05-06T17:50:02.133Z,95278.47
2023-05-06T17:52:30.478Z,95280.13
2023-05-06T17:55:15.030Z,95272.97
2023-05-06T17:57:46.777Z,95282.66
2023-05-06T18:00:16.717Z,95287.28
2023-05-06T18:02:47.359Z,95287.66
2023-05-06T18:05:17.568Z,95281.06
2023-05-06T18:07:45.564Z,95284.31
2023-05-06T18:10:14.116Z,95280.94
2023-05-06T18:12:42.261Z,95281.06
2023-05-06T18:15:11.717Z,95279.06
2023-05-06T18:17:40.672Z,95288.19
2023-05-06T18:20:11.429Z,95287.75
2023-05-06T18:22:42.781Z,95284.84
2023-05-06T18:25:11.686Z,95290.00
2023-05-06T18:27:40.188Z,95285.31
2023-05-06T18:30:09.802Z,95281.66
2023-05-06T18:32:38.324Z,95287.03
2023-05-06T18:35:07.349Z,95292.16
2023-05-06T18:37:35.581Z,95290.31
2023-05-06T18:40:06.159Z,95291.44
2023-05-06T18:42:35.555Z,95287.03
2023-05-06T18:45:06.951Z,95300.53
2023-05-06T18:47:36.900Z,95304.13
2023-05-06T18:50:05.780Z,95301.56
2023-05-06T18:52:36.105Z,95302.69
2023-05-06T18:55:07.532Z,95304.25
2023-05-06T18:57:37.224Z,95301.84
2023-05-06T19:00:07.175Z,95299.47
2023-05-06T19:02:35.367Z,95307.97
2023-05-06T19:05:03.622Z,95307.19
2023-05-06T19:07:31.661Z,95306.88
2023-05-06T19:09:59.672Z,95304.03
2023-05-06T19:12:28.897Z,95309.41
2023-05-06T19:14:56.950Z,95312.69
2023-05-06T19:17:25.141Z,95307.34
2023-05-06T19:19:53.097Z,95309.03
2023-05-06T19:22:21.308Z,95311.03
2023-05-06T19:24:49.467Z,95305.19
2023-05-06T19:27:17.595Z,95312.69
2023-05-06T19:29:48.286Z,95306.00
2023-05-06T19:32:16.264Z,95306.56
2023-05-06T19:34:44.394Z,95318.25
2023-05-06T19:37:12.475Z,95309.53
2023-05-06T19:39:40.905Z,95315.91
2023-05-06T19:42:09.003Z,95311.16
2023-05-06T19:44:37.386Z,95319.44
2023-05-06T19:47:06.735Z,95314.16
2023-05-06T19:49:34.670Z,95312.00
2023-05-06T19:52:02.835Z,95312.00
2023-05-06T19:54:31.098Z,95316.25
2023-05-06T19:56:59.856Z,95315.16
2023-05-06T19:59:28.495Z,95324.72
2023-05-06T20:01:59.111Z,95316.78
2023-05-06T20:04:29.120Z,95324.22
2023-05-06T20:06:58.165Z,95316.78
2023-05-06T20:09:26.184Z,95318.91
2023-05-06T20:11:54.906Z,95316.81
2023-05-06T20:14:22.913Z,95313.66
2023-05-06T20:16:51.665Z,95312.88
2023-05-06T20:19:21.345Z,95313.94
2023-05-06T20:21:50.940Z,95308.34
2023-05-06T20:24:19.052Z,95308.63
2023-05-06T20:26:47.095Z,95317.13
2023-05-06T20:29:16.072Z,95304.94
2023-05-06T20:31:47.011Z,95312.91
2023-05-06T20:34:15.271Z,95307.59
2023-05-06T20:36:44.350Z,95314.22
2023-05-06T20:39:13.892Z,95312.63
2023-05-06T20:41:42.265Z,95316.34
2023-05-06T20:44:10.245Z,95312.09
2023-05-06T20:46:38.375Z,95308.91
2023-05-06T20:49:07.092Z,95313.94
2023-05-06T20:51:36.751Z,95314.47
2023-05-06T20:54:05.043Z,95307.59
2023-05-06T20:56:34.580Z,95315.53
2023-05-06T20:59:02.762Z,95313.66
2023-05-06T21:01:31.000Z,95308.34
2023-05-06T21:04:01.402Z,95303.03
2023-05-06T21:06:29.409Z,95310.47
2023-05-06T21:08:58.057Z,95312.09
2023-05-06T21:11:28.789Z,95308.66
2023-05-06T21:13:58.969Z,95295.66
2023-05-06T21:16:27.126Z,95299.34
2023-05-06T21:18:55.437Z,95293.25
2023-05-06T21:21:25.053Z,95306.78
2023-05-06T21:23:53.448Z,95311.81
2023-05-06T21:26:21.487Z,95309.44
2023-05-06T21:28:52.041Z,95302.81
2023-05-06T21:31:23.882Z,95302.00
2023-05-06T21:33:56.490Z,95311.53
2023-05-06T21:36:24.771Z,95313.41
2023-05-06T21:39:01.968Z,95303.59
2023-05-06T21:41:30.152Z,95316.06
2023-05-06T21:43:58.594Z,95315.25
2023-05-06T21:46:28.398Z,95314.97
2023-05-06T21:48:57.108Z,95315.25
2023-05-06T21:51:28.190Z,95314.19
2023-05-06T21:53:56.920Z,95308.84
2023-05-06T21:56:25.464Z,95311.50
2023-05-06T21:58:54.697Z,95316.81
2023-05-06T22:01:23.473Z,95310.97
2023-05-06T22:03:53.390Z,95311.78
2023-05-06T22:06:22.179Z,95314.91
2023-05-06T22:08:50.179Z,95312.25
2023-05-06T22:11:18.483Z,95313.53
2023-05-06T22:13:46.777Z,95315.91
2023-05-06T22:16:15.029Z,95310.88
2023-05-06T22:18:43.337Z,95302.91
2023-05-06T22:21:12.982Z,95313.75
2023-05-06T22:23:41.380Z,95305.56
2023-05-06T22:26:09.358Z,95301.81
2023-05-06T22:28:37.505Z,95304.47
2023-05-06T22:31:05.810Z,95299.16
2023-05-06T22:33:33.953Z,95294.34
2023-05-06T22:36:02.614Z,95295.69
2023-05-06T22:38:32.089Z,95292.22
2023-05-06T22:41:00.032Z,95286.69
2023-05-06T22:43:28.172Z,95285.63
2023-05-06T22:45:56.180Z,95291.16
2023-05-06T22:48:24.335Z,95286.63
2023-05-06T22:50:53.066Z,95283.94
2023-05-06T22:53:20.991Z,95281.81
2023-05-06T22:55:50.479Z,95282.31
2023-05-06T22:58:18.429Z,95283.66
2023-05-06T23:00:48.250Z,95279.69
2023-05-06T23:03:17.910Z,95282.03
2023-05-06T23:05:46.196Z,95272.19
2023-05-06T23:08:14.955Z,95277.22
2023-05-06T23:10:43.423Z,95279.53
2023-05-06T23:13:13.126Z,95283.25
2023-05-06T23:15:41.164Z,95282.19
2023-05-06T23:18:09.948Z,95274.25
2023-05-06T23:20:37.959Z,95275.19
2023-05-06T23:23:06.260Z,95271.09
2023-05-06T23:25:34.412Z,95267.97
2023-05-06T23:28:02.664Z,95270.34
2023-05-06T23:30:32.043Z,95274.00
2023-05-06T23:33:00.261Z,95275.38
2023-05-06T23:35:28.634Z,95274.66
2023-05-06T23:37:56.965Z,95276.28
2023-05-06T23:40:24.995Z,95270.94
2023-05-06T23:42:55.106Z,95268.03
2023-05-06T23:45:23.009Z,95269.34
2023-05-06T23:47:52.703Z,95272.00
2023-05-06T23:50:20.916Z,95277.84
2023-05-06T23:52:49.018Z,95279.69
2023-05-06T23:55:17.211Z,95274.69
2023-05-06T23:57:45.692Z,95273.09
